Terminal Aerodrome Forecast
Issued by NWS

Home | Current Version | Previous Version | Graphics & Text | Print | Product List | Glossary On
Versions: 1 2 3 4 5 6 7 8 9 10 11 12 13 14
555
FTUS43 KBIS 171135
TAFJMS
TAF
KJMS 171135Z 1712/1812 VRB03KT P6SM SKC
     FM171500 21008KT P6SM SKC
     FM171700 24013G22KT P6SM SKC
     FM180100 21010KT P6SM SKC WS020/25035KT
     FM181000 24010KT P6SM FEW140 FEW250 WS020/29040KT=

USA.gov is the U.S. government's official web portal to all federal, state and local government web resources and services.